sensor_id;sensor_type;location;lat;lon;timestamp;temperature;humidity
71177;DHT22;58877;51.992;4.504;2023-07-29T00:02:03;19.34;78.79
71177;DHT22;58877;51.992;4.504;2023-07-29T00:04:30;19.35;78.66
71177;DHT22;58877;51.992;4.504;2023-07-29T00:06:55;19.31;78.71
71177;DHT22;58877;51.992;4.504;2023-07-29T00:09:21;19.28;78.17
71177;DHT22;58877;51.992;4.504;2023-07-29T00:11:46;19.28;78.37
71177;DHT22;58877;51.992;4.504;2023-07-29T00:14:15;19.24;78.52
71177;DHT22;58877;51.992;4.504;2023-07-29T00:16:41;19.28;78.53
71177;DHT22;58877;51.992;4.504;2023-07-29T00:19:08;19.30;78.54
71177;DHT22;58877;51.992;4.504;2023-07-29T00:21:33;19.38;78.48
71177;DHT22;58877;51.992;4.504;2023-07-29T00:23:59;19.44;78.24
71177;DHT22;58877;51.992;4.504;2023-07-29T00:26:28;19.41;78.02
71177;DHT22;58877;51.992;4.504;2023-07-29T00:29:03;19.34;78.08
71177;DHT22;58877;51.992;4.504;2023-07-29T00:31:28;19.35;77.91
71177;DHT22;58877;51.992;4.504;2023-07-29T00:33:55;19.33;78.05
71177;DHT22;58877;51.992;4.504;2023-07-29T00:36:23;19.30;77.98
71177;DHT22;58877;51.992;4.504;2023-07-29T00:38:49;19.34;77.87
71177;DHT22;58877;51.992;4.504;2023-07-29T00:41:15;19.35;77.76
71177;DHT22;58877;51.992;4.504;2023-07-29T00:43:41;19.30;77.87
71177;DHT22;58877;51.992;4.504;2023-07-29T00:46:08;19.27;77.99
71177;DHT22;58877;51.992;4.504;2023-07-29T00:48:38;19.24;78.33
71177;DHT22;58877;51.992;4.504;2023-07-29T00:51:04;19.30;78.48
71177;DHT22;58877;51.992;4.504;2023-07-29T00:53:30;19.34;78.30
71177;DHT22;58877;51.992;4.504;2023-07-29T00:55:56;19.37;78.23
71177;DHT22;58877;51.992;4.504;2023-07-29T00:58:22;19.37;78.40
71177;DHT22;58877;51.992;4.504;2023-07-29T01:00:47;19.26;78.78
71177;DHT22;58877;51.992;4.504;2023-07-29T01:03:14;19.27;78.82
71177;DHT22;58877;51.992;4.504;2023-07-29T01:09:14;19.19;78.08
71177;DHT22;58877;51.992;4.504;2023-07-29T01:12:02;19.19;77.96
71177;DHT22;58877;51.992;4.504;2023-07-29T01:15:07;19.17;77.74
71177;DHT22;58877;51.992;4.504;2023-07-29T01:18:04;19.19;77.58
71177;DHT22;58877;51.992;4.504;2023-07-29T01:20:37;19.09;77.72
71177;DHT22;58877;51.992;4.504;2023-07-29T01:23:07;19.06;77.72
71177;DHT22;58877;51.992;4.504;2023-07-29T01:25:32;19.09;77.49
71177;DHT22;58877;51.992;4.504;2023-07-29T01:27:58;19.14;77.46
71177;DHT22;58877;51.992;4.504;2023-07-29T01:30:30;19.09;77.63
71177;DHT22;58877;51.992;4.504;2023-07-29T01:33:16;19.10;77.40
71177;DHT22;58877;51.992;4.504;2023-07-29T01:36:13;19.07;77.29
71177;DHT22;58877;51.992;4.504;2023-07-29T01:38:44;19.13;77.30
71177;DHT22;58877;51.992;4.504;2023-07-29T01:41:11;19.13;77.15
71177;DHT22;58877;51.992;4.504;2023-07-29T01:43:40;19.12;77.17
71177;DHT22;58877;51.992;4.504;2023-07-29T01:46:13;19.14;77.04
71177;DHT22;58877;51.992;4.504;2023-07-29T01:48:42;19.14;77.04
71177;DHT22;58877;51.992;4.504;2023-07-29T01:51:12;19.13;77.02
71177;DHT22;58877;51.992;4.504;2023-07-29T01:53:38;19.07;77.06
71177;DHT22;58877;51.992;4.504;2023-07-29T01:56:04;19.07;77.04
71177;DHT22;58877;51.992;4.504;2023-07-29T01:58:33;18.99;77.15
71177;DHT22;58877;51.992;4.504;2023-07-29T02:00:59;19.06;77.15
71177;DHT22;58877;51.992;4.504;2023-07-29T02:03:24;18.98;77.40
71177;DHT22;58877;51.992;4.504;2023-07-29T02:05:50;18.88;77.73
71177;DHT22;58877;51.992;4.504;2023-07-29T02:08:15;18.88;77.79
71177;DHT22;58877;51.992;4.504;2023-07-29T02:10:44;18.88;77.83
71177;DHT22;58877;51.992;4.504;2023-07-29T02:13:11;18.88;77.90
71177;DHT22;58877;51.992;4.504;2023-07-29T02:15:37;18.90;77.96
71177;DHT22;58877;51.992;4.504;2023-07-29T02:18:05;18.93;77.69
71177;DHT22;58877;51.992;4.504;2023-07-29T02:20:31;18.90;77.73
71177;DHT22;58877;51.992;4.504;2023-07-29T02:22:57;18.95;77.76
71177;DHT22;58877;51.992;4.504;2023-07-29T02:25:23;18.93;77.81
71177;DHT22;58877;51.992;4.504;2023-07-29T02:27:48;18.92;77.52
71177;DHT22;58877;51.992;4.504;2023-07-29T02:30:14;18.88;77.75
71177;DHT22;58877;51.992;4.504;2023-07-29T02:32:40;18.86;77.82
71177;DHT22;58877;51.992;4.504;2023-07-29T02:35:08;18.85;77.89
71177;DHT22;58877;51.992;4.504;2023-07-29T02:37:34;18.82;78.17
71177;DHT22;58877;51.992;4.504;2023-07-29T02:39:59;18.80;78.15
71177;DHT22;58877;51.992;4.504;2023-07-29T02:42:25;18.75;78.30
71177;DHT22;58877;51.992;4.504;2023-07-29T02:44:54;18.77;78.34
71177;DHT22;58877;51.992;4.504;2023-07-29T02:47:20;18.76;78.40
71177;DHT22;58877;51.992;4.504;2023-07-29T02:49:45;18.73;78.46
71177;DHT22;58877;51.992;4.504;2023-07-29T02:52:11;18.82;78.38
71177;DHT22;58877;51.992;4.504;2023-07-29T02:54:39;18.85;78.32
71177;DHT22;58877;51.992;4.504;2023-07-29T02:57:07;18.83;78.29
71177;DHT22;58877;51.992;4.504;2023-07-29T02:59:33;18.80;78.37
71177;DHT22;58877;51.992;4.504;2023-07-29T03:02:01;18.82;78.36
71177;DHT22;58877;51.992;4.504;2023-07-29T03:04:27;18.79;78.47
71177;DHT22;58877;51.992;4.504;2023-07-29T03:06:52;18.82;78.51
71177;DHT22;58877;51.992;4.504;2023-07-29T03:09:18;18.75;78.63
71177;DHT22;58877;51.992;4.504;2023-07-29T03:11:47;18.72;78.96
71177;DHT22;58877;51.992;4.504;2023-07-29T03:14:13;18.70;78.95
71177;DHT22;58877;51.992;4.504;2023-07-29T03:16:38;18.65;79.05
71177;DHT22;58877;51.992;4.504;2023-07-29T03:19:06;18.59;79.42
71177;DHT22;58877;51.992;4.504;2023-07-29T03:21:32;18.56;79.58
71177;DHT22;58877;51.992;4.504;2023-07-29T03:24:01;18.62;79.56
71177;DHT22;58877;51.992;4.504;2023-07-29T03:26:26;18.60;79.53
71177;DHT22;58877;51.992;4.504;2023-07-29T03:28:52;18.60;79.55
71177;DHT22;58877;51.992;4.504;2023-07-29T03:31:18;18.66;79.39
71177;DHT22;58877;51.992;4.504;2023-07-29T03:33:43;18.62;79.60
71177;DHT22;58877;51.992;4.504;2023-07-29T03:36:09;18.56;79.72
71177;DHT22;58877;51.992;4.504;2023-07-29T03:38:35;18.60;79.63
71177;DHT22;58877;51.992;4.504;2023-07-29T03:41:05;18.62;79.72
71177;DHT22;58877;51.992;4.504;2023-07-29T03:43:33;18.70;79.30
71177;DHT22;58877;51.992;4.504;2023-07-29T03:46:00;18.68;79.36
71177;DHT22;58877;51.992;4.504;2023-07-29T03:48:25;18.55;79.85
71177;DHT22;58877;51.992;4.504;2023-07-29T03:50:51;18.58;79.94
71177;DHT22;58877;51.992;4.504;2023-07-29T03:53:17;18.60;79.82
71177;DHT22;58877;51.992;4.504;2023-07-29T03:55:43;18.55;79.94
71177;DHT22;58877;51.992;4.504;2023-07-29T03:58:09;18.59;79.89
71177;DHT22;58877;51.992;4.504;2023-07-29T04:00:34;18.49;80.17
71177;DHT22;58877;51.992;4.504;2023-07-29T04:03:03;18.52;80.17
71177;DHT22;58877;51.992;4.504;2023-07-29T04:05:28;18.60;80.08
71177;DHT22;58877;51.992;4.504;2023-07-29T04:07:54;18.60;80.06
71177;DHT22;58877;51.992;4.504;2023-07-29T04:10:20;18.66;79.86
71177;DHT22;58877;51.992;4.504;2023-07-29T04:12:46;18.63;79.88
71177;DHT22;58877;51.992;4.504;2023-07-29T04:15:15;18.63;79.96
71177;DHT22;58877;51.992;4.504;2023-07-29T04:17:41;18.68;79.82
71177;DHT22;58877;51.992;4.504;2023-07-29T04:20:07;18.70;79.79
71177;DHT22;58877;51.992;4.504;2023-07-29T04:22:33;18.70;79.87
71177;DHT22;58877;51.992;4.504;2023-07-29T04:24:59;18.77;79.82
71177;DHT22;58877;51.992;4.504;2023-07-29T04:27:24;18.77;79.72
71177;DHT22;58877;51.992;4.504;2023-07-29T04:29:59;18.68;79.98
71177;DHT22;58877;51.992;4.504;2023-07-29T04:32:26;18.72;80.03
71177;DHT22;58877;51.992;4.504;2023-07-29T04:34:51;18.72;79.99
71177;DHT22;58877;51.992;4.504;2023-07-29T04:37:17;18.66;80.09
71177;DHT22;58877;51.992;4.504;2023-07-29T04:39:45;18.62;80.45
71177;DHT22;58877;51.992;4.504;2023-07-29T04:42:12;18.58;80.72
71177;DHT22;58877;51.992;4.504;2023-07-29T04:44:37;18.63;80.52
71177;DHT22;58877;51.992;4.504;2023-07-29T04:47:03;18.63;80.64
71177;DHT22;58877;51.992;4.504;2023-07-29T04:49:29;18.65;80.72
71177;DHT22;58877;51.992;4.504;2023-07-29T04:51:55;18.65;80.84
71177;DHT22;58877;51.992;4.504;2023-07-29T04:54:21;18.72;80.63
71177;DHT22;58877;51.992;4.504;2023-07-29T04:56:49;18.73;80.85
71177;DHT22;58877;51.992;4.504;2023-07-29T04:59:18;18.75;80.67
71177;DHT22;58877;51.992;4.504;2023-07-29T05:01:44;18.75;80.57
71177;DHT22;58877;51.992;4.504;2023-07-29T05:04:09;18.82;80.52
71177;DHT22;58877;51.992;4.504;2023-07-29T05:06:35;18.79;80.57
71177;DHT22;58877;51.992;4.504;2023-07-29T05:09:13;18.80;80.56
71177;DHT22;58877;51.992;4.504;2023-07-29T05:11:42;18.93;80.48
71177;DHT22;58877;51.992;4.504;2023-07-29T05:14:15;18.98;80.27
71177;DHT22;58877;51.992;4.504;2023-07-29T05:16:40;19.07;80.14
71177;DHT22;58877;51.992;4.504;2023-07-29T05:19:06;19.14;79.91
71177;DHT22;58877;51.992;4.504;2023-07-29T05:21:32;19.20;79.64
71177;DHT22;58877;51.992;4.504;2023-07-29T05:24:00;19.16;79.62
71177;DHT22;58877;51.992;4.504;2023-07-29T05:26:26;19.19;79.81
71177;DHT22;58877;51.992;4.504;2023-07-29T05:28:52;19.13;79.92
71177;DHT22;58877;51.992;4.504;2023-07-29T05:31:21;19.20;79.98
71177;DHT22;58877;51.992;4.504;2023-07-29T05:33:47;19.17;79.95
71177;DHT22;58877;51.992;4.504;2023-07-29T05:36:15;19.20;80.14
71177;DHT22;58877;51.992;4.504;2023-07-29T05:38:41;19.26;80.02
71177;DHT22;58877;51.992;4.504;2023-07-29T05:41:07;19.24;80.17
71177;DHT22;58877;51.992;4.504;2023-07-29T05:43:33;19.31;80.14
71177;DHT22;58877;51.992;4.504;2023-07-29T05:45:58;19.26;80.30
71177;DHT22;58877;51.992;4.504;2023-07-29T05:48:24;19.43;80.09
71177;DHT22;58877;51.992;4.504;2023-07-29T05:50:49;19.35;79.83
71177;DHT22;58877;51.992;4.504;2023-07-29T05:53:15;19.30;80.35
71177;DHT22;58877;51.992;4.504;2023-07-29T05:55:41;19.34;80.55
71177;DHT22;58877;51.992;4.504;2023-07-29T05:58:06;19.44;80.40
71177;DHT22;58877;51.992;4.504;2023-07-29T06:00:32;19.53;80.27
71177;DHT22;58877;51.992;4.504;2023-07-29T06:02:58;19.64;79.98
71177;DHT22;58877;51.992;4.504;2023-07-29T06:05:23;19.77;79.51
71177;DHT22;58877;51.992;4.504;2023-07-29T06:07:52;19.73;79.64
71177;DHT22;58877;51.992;4.504;2023-07-29T06:10:18;19.78;79.59
71177;DHT22;58877;51.992;4.504;2023-07-29T06:12:45;19.84;79.48
71177;DHT22;58877;51.992;4.504;2023-07-29T06:15:11;19.92;79.20
71177;DHT22;58877;51.992;4.504;2023-07-29T06:17:38;19.91;78.72
71177;DHT22;58877;51.992;4.504;2023-07-29T06:20:04;19.81;79.10
71177;DHT22;58877;51.992;4.504;2023-07-29T06:22:30;19.81;79.57
71177;DHT22;58877;51.992;4.504;2023-07-29T06:24:58;19.92;79.44
71177;DHT22;58877;51.992;4.504;2023-07-29T06:27:26;19.95;78.90
71177;DHT22;58877;51.992;4.504;2023-07-29T06:29:52;19.89;78.98
71177;DHT22;58877;51.992;4.504;2023-07-29T06:32:18;19.91;79.28
71177;DHT22;58877;51.992;4.504;2023-07-29T06:34:43;19.89;79.26
71177;DHT22;58877;51.992;4.504;2023-07-29T06:37:09;19.97;79.30
71177;DHT22;58877;51.992;4.504;2023-07-29T06:39:35;20.21;79.02
71177;DHT22;58877;51.992;4.504;2023-07-29T06:42:03;20.33;78.43
71177;DHT22;58877;51.992;4.504;2023-07-29T06:44:32;20.29;78.11
71177;DHT22;58877;51.992;4.504;2023-07-29T06:46:58;20.40;78.23
71177;DHT22;58877;51.992;4.504;2023-07-29T06:49:25;20.52;77.90
71177;DHT22;58877;51.992;4.504;2023-07-29T06:51:51;20.73;77.27
71177;DHT22;58877;51.992;4.504;2023-07-29T06:54:17;20.45;77.42
71177;DHT22;58877;51.992;4.504;2023-07-29T06:56:49;20.18;78.58
71177;DHT22;58877;51.992;4.504;2023-07-29T06:59:14;20.19;79.07
71177;DHT22;58877;51.992;4.504;2023-07-29T07:01:43;20.24;78.61
71177;DHT22;58877;51.992;4.504;2023-07-29T07:04:54;20.49;77.72
71177;DHT22;58877;51.992;4.504;2023-07-29T07:07:23;20.49;76.68
71177;DHT22;58877;51.992;4.504;2023-07-29T07:12:35;20.30;76.76
71177;DHT22;58877;51.992;4.504;2023-07-29T07:15:01;20.29;76.84
71177;DHT22;58877;51.992;4.504;2023-07-29T07:17:27;20.18;77.22
71177;DHT22;58877;51.992;4.504;2023-07-29T07:19:52;20.42;76.72
71177;DHT22;58877;51.992;4.504;2023-07-29T07:22:18;20.72;75.57
71177;DHT22;58877;51.992;4.504;2023-07-29T07:24:44;20.73;75.31
71177;DHT22;58877;51.992;4.504;2023-07-29T07:27:12;21.11;74.50
71177;DHT22;58877;51.992;4.504;2023-07-29T07:29:44;21.24;73.62
71177;DHT22;58877;51.992;4.504;2023-07-29T07:32:10;21.08;73.48
71177;DHT22;58877;51.992;4.504;2023-07-29T07:34:36;21.24;72.78
71177;DHT22;58877;51.992;4.504;2023-07-29T07:37:03;21.40;71.70
71177;DHT22;58877;51.992;4.504;2023-07-29T07:39:32;21.35;71.68
71177;DHT22;58877;51.992;4.504;2023-07-29T07:42:01;21.14;71.07
71177;DHT22;58877;51.992;4.504;2023-07-29T07:44:30;20.80;72.02
71177;DHT22;58877;51.992;4.504;2023-07-29T07:46:55;20.55;72.42
71177;DHT22;58877;51.992;4.504;2023-07-29T07:49:22;20.30;72.80
71177;DHT22;58877;51.992;4.504;2023-07-29T07:51:47;20.45;72.96
71177;DHT22;58877;51.992;4.504;2023-07-29T07:54:16;20.90;71.87
71177;DHT22;58877;51.992;4.504;2023-07-29T07:56:43;21.30;71.57
71177;DHT22;58877;51.992;4.504;2023-07-29T07:59:09;21.45;70.16
71177;DHT22;58877;51.992;4.504;2023-07-29T08:01:38;21.57;69.16
71177;DHT22;58877;51.992;4.504;2023-07-29T08:04:05;21.53;69.87
71177;DHT22;58877;51.992;4.504;2023-07-29T08:06:34;21.73;69.89
71177;DHT22;58877;51.992;4.504;2023-07-29T08:09:00;21.78;69.32
71177;DHT22;58877;51.992;4.504;2023-07-29T08:11:27;21.69;69.58
71177;DHT22;58877;51.992;4.504;2023-07-29T08:13:52;21.87;68.61
71177;DHT22;58877;51.992;4.504;2023-07-29T08:16:18;21.81;67.06
71177;DHT22;58877;51.992;4.504;2023-07-29T08:18:43;21.47;67.56
71177;DHT22;58877;51.992;4.504;2023-07-29T08:21:09;21.59;67.86
71177;DHT22;58877;51.992;4.504;2023-07-29T08:23:36;21.69;68.65
71177;DHT22;58877;51.992;4.504;2023-07-29T08:26:05;21.89;67.78
71177;DHT22;58877;51.992;4.504;2023-07-29T08:28:34;21.43;68.05
71177;DHT22;58877;51.992;4.504;2023-07-29T08:31:03;21.03;69.44
71177;DHT22;58877;51.992;4.504;2023-07-29T08:33:29;20.99;70.63
71177;DHT22;58877;51.992;4.504;2023-07-29T08:35:55;20.82;71.70
71177;DHT22;58877;51.992;4.504;2023-07-29T08:38:22;20.89;72.15
71177;DHT22;58877;51.992;4.504;2023-07-29T08:41:05;20.89;72.57
71177;DHT22;58877;51.992;4.504;2023-07-29T08:43:32;20.77;73.25
71177;DHT22;58877;51.992;4.504;2023-07-29T08:46:00;20.72;74.32
71177;DHT22;58877;51.992;4.504;2023-07-29T08:48:42;20.69;73.95
71177;DHT22;58877;51.992;4.504;2023-07-29T08:51:09;20.70;74.34
71177;DHT22;58877;51.992;4.504;2023-07-29T08:53:42;20.70;74.44
71177;DHT22;58877;51.992;4.504;2023-07-29T08:56:09;20.53;74.67
71177;DHT22;58877;51.992;4.504;2023-07-29T08:58:35;20.40;75.21
71177;DHT22;58877;51.992;4.504;2023-07-29T09:01:01;20.32;75.41
71177;DHT22;58877;51.992;4.504;2023-07-29T09:03:26;20.50;76.36
71177;DHT22;58877;51.992;4.504;2023-07-29T09:05:53;20.63;76.10
71177;DHT22;58877;51.992;4.504;2023-07-29T09:08:20;20.63;75.85
71177;DHT22;58877;51.992;4.504;2023-07-29T09:10:46;20.49;76.05
71177;DHT22;58877;51.992;4.504;2023-07-29T09:13:12;20.68;75.63
71177;DHT22;58877;51.992;4.504;2023-07-29T09:15:38;20.90;74.64
71177;DHT22;58877;51.992;4.504;2023-07-29T09:18:14;20.80;73.77
71177;DHT22;58877;51.992;4.504;2023-07-29T09:20:40;20.94;73.52
71177;DHT22;58877;51.992;4.504;2023-07-29T09:23:08;21.22;72.86
71177;DHT22;58877;51.992;4.504;2023-07-29T09:25:37;21.45;72.14
71177;DHT22;58877;51.992;4.504;2023-07-29T09:28:13;21.68;71.66
71177;DHT22;58877;51.992;4.504;2023-07-29T09:30:41;21.61;71.65
71177;DHT22;58877;51.992;4.504;2023-07-29T09:33:08;21.20;72.47
71177;DHT22;58877;51.992;4.504;2023-07-29T09:35:36;21.14;73.28
71177;DHT22;58877;51.992;4.504;2023-07-29T09:38:03;21.06;72.86
71177;DHT22;58877;51.992;4.504;2023-07-29T09:40:40;21.16;73.35
71177;DHT22;58877;51.992;4.504;2023-07-29T09:43:10;21.26;73.71
71177;DHT22;58877;51.992;4.504;2023-07-29T09:45:37;20.94;74.06
71177;DHT22;58877;51.992;4.504;2023-07-29T09:48:04;20.68;75.80
71177;DHT22;58877;51.992;4.504;2023-07-29T09:50:34;20.90;75.52
71177;DHT22;58877;51.992;4.504;2023-07-29T09:53:00;21.20;74.73
71177;DHT22;58877;51.992;4.504;2023-07-29T09:55:26;21.38;73.99
71177;DHT22;58877;51.992;4.504;2023-07-29T09:58:00;21.68;73.20
71177;DHT22;58877;51.992;4.504;2023-07-29T10:00:28;21.73;73.60
71177;DHT22;58877;51.992;4.504;2023-07-29T10:02:55;21.48;73.57
71177;DHT22;58877;51.992;4.504;2023-07-29T10:05:27;21.53;74.21
71177;DHT22;58877;51.992;4.504;2023-07-29T10:07:54;21.40;73.52
71177;DHT22;58877;51.992;4.504;2023-07-29T10:10:24;21.41;72.88
71177;DHT22;58877;51.992;4.504;2023-07-29T10:12:54;21.41;72.98
71177;DHT22;58877;51.992;4.504;2023-07-29T10:15:23;21.26;73.66
71177;DHT22;58877;51.992;4.504;2023-07-29T10:17:50;21.19;74.67
71177;DHT22;58877;51.992;4.504;2023-07-29T10:20:17;21.03;75.84
71177;DHT22;58877;51.992;4.504;2023-07-29T10:22:47;21.04;76.44
71177;DHT22;58877;51.992;4.504;2023-07-29T10:25:16;21.06;76.20
71177;DHT22;58877;51.992;4.504;2023-07-29T10:28:04;20.92;77.19
71177;DHT22;58877;51.992;4.504;2023-07-29T10:30:28;20.80;76.61
71177;DHT22;58877;51.992;4.504;2023-07-29T10:32:58;20.24;78.47
71177;DHT22;58877;51.992;4.504;2023-07-29T10:35:24;20.30;79.56
71177;DHT22;58877;51.992;4.504;2023-07-29T10:37:51;20.19;79.70
71177;DHT22;58877;51.992;4.504;2023-07-29T10:40:19;20.09;79.88
71177;DHT22;58877;51.992;4.504;2023-07-29T10:43:10;20.05;80.67
71177;DHT22;58877;51.992;4.504;2023-07-29T10:45:44;19.89;80.80
71177;DHT22;58877;51.992;4.504;2023-07-29T10:51:30;20.09;82.09
71177;DHT22;58877;51.992;4.504;2023-07-29T10:54:13;20.29;80.66
71177;DHT22;58877;51.992;4.504;2023-07-29T10:56:58;20.48;81.12
71177;DHT22;58877;51.992;4.504;2023-07-29T10:59:33;20.80;80.12
71177;DHT22;58877;51.992;4.504;2023-07-29T11:02:01;21.13;79.83
71177;DHT22;58877;51.992;4.504;2023-07-29T11:04:30;21.64;78.61
71177;DHT22;58877;51.992;4.504;2023-07-29T11:12:36;22.64;74.60
71177;DHT22;58877;51.992;4.504;2023-07-29T11:15:23;22.55;74.76
71177;DHT22;58877;51.992;4.504;2023-07-29T11:20:21;21.94;75.55
71177;DHT22;58877;51.992;4.504;2023-07-29T11:22:52;21.87;76.46
71177;DHT22;58877;51.992;4.504;2023-07-29T11:25:18;21.75;76.11
71177;DHT22;58877;51.992;4.504;2023-07-29T11:27:45;21.53;77.38
71177;DHT22;58877;51.992;4.504;2023-07-29T11:30:15;21.16;76.70
71177;DHT22;58877;51.992;4.504;2023-07-29T11:32:45;21.07;77.90
71177;DHT22;58877;51.992;4.504;2023-07-29T11:35:14;21.10;78.86
71177;DHT22;58877;51.992;4.504;2023-07-29T11:37:43;21.11;77.40
71177;DHT22;58877;51.992;4.504;2023-07-29T11:40:09;21.30;77.22
71177;DHT22;58877;51.992;4.504;2023-07-29T11:42:38;21.35;76.85
71177;DHT22;58877;51.992;4.504;2023-07-29T11:45:04;21.54;76.48
71177;DHT22;58877;51.992;4.504;2023-07-29T11:47:36;21.22;76.23
71177;DHT22;58877;51.992;4.504;2023-07-29T11:50:10;21.43;76.97
71177;DHT22;58877;51.992;4.504;2023-07-29T11:52:43;21.71;76.65
71177;DHT22;58877;51.992;4.504;2023-07-29T11:55:14;21.68;75.09
71177;DHT22;58877;51.992;4.504;2023-07-29T11:57:42;21.78;74.44
71177;DHT22;58877;51.992;4.504;2023-07-29T12:00:15;22.02;73.55
71177;DHT22;58877;51.992;4.504;2023-07-29T12:21:35;22.55;71.14
71177;DHT22;58877;51.992;4.504;2023-07-29T12:24:22;22.50;70.11
71177;DHT22;58877;51.992;4.504;2023-07-29T12:26:48;22.63;69.62
71177;DHT22;58877;51.992;4.504;2023-07-29T12:29:23;22.52;68.63
71177;DHT22;58877;51.992;4.504;2023-07-29T12:32:06;22.66;69.32
71177;DHT22;58877;51.992;4.504;2023-07-29T12:34:38;22.74;68.58
71177;DHT22;58877;51.992;4.504;2023-07-29T12:37:06;22.89;68.39
71177;DHT22;58877;51.992;4.504;2023-07-29T12:39:35;23.03;66.22
71177;DHT22;58877;51.992;4.504;2023-07-29T12:42:03;22.87;66.87
71177;DHT22;58877;51.992;4.504;2023-07-29T12:44:36;23.06;67.39
71177;DHT22;58877;51.992;4.504;2023-07-29T12:47:40;23.61;65.55
71177;DHT22;58877;51.992;4.504;2023-07-29T12:50:06;23.51;64.79
71177;DHT22;58877;51.992;4.504;2023-07-29T12:52:32;23.13;65.85
71177;DHT22;58877;51.992;4.504;2023-07-29T12:54:58;23.55;66.39
71177;DHT22;58877;51.992;4.504;2023-07-29T12:57:24;23.81;65.00
71177;DHT22;58877;51.992;4.504;2023-07-29T12:59:54;23.65;64.88
71177;DHT22;58877;51.992;4.504;2023-07-29T13:02:21;23.14;65.87
71177;DHT22;58877;51.992;4.504;2023-07-29T13:04:46;23.21;67.13
71177;DHT22;58877;51.992;4.504;2023-07-29T13:07:14;22.94;67.12
71177;DHT22;58877;51.992;4.504;2023-07-29T13:09:42;22.77;68.00
71177;DHT22;58877;51.992;4.504;2023-07-29T13:12:08;22.89;66.89
71177;DHT22;58877;51.992;4.504;2023-07-29T13:14:34;22.94;65.53
71177;DHT22;58877;51.992;4.504;2023-07-29T13:17:00;22.67;67.38
71177;DHT22;58877;51.992;4.504;2023-07-29T13:19:28;22.94;67.43
71177;DHT22;58877;51.992;4.504;2023-07-29T13:21:57;23.54;65.88
71177;DHT22;58877;51.992;4.504;2023-07-29T13:24:25;23.82;64.49
71177;DHT22;58877;51.992;4.504;2023-07-29T13:26:51;23.62;64.24
71177;DHT22;58877;51.992;4.504;2023-07-29T13:29:17;23.44;64.05
71177;DHT22;58877;51.992;4.504;2023-07-29T13:31:56;23.58;64.78
71177;DHT22;58877;51.992;4.504;2023-07-29T13:34:21;24.01;63.16
71177;DHT22;58877;51.992;4.504;2023-07-29T13:36:50;24.16;61.54
71177;DHT22;58877;51.992;4.504;2023-07-29T13:39:16;23.65;59.81
71177;DHT22;58877;51.992;4.504;2023-07-29T13:41:42;23.85;60.00
71177;DHT22;58877;51.992;4.504;2023-07-29T13:44:11;23.85;60.27
71177;DHT22;58877;51.992;4.504;2023-07-29T13:46:40;23.46;60.69
71177;DHT22;58877;51.992;4.504;2023-07-29T13:49:09;23.58;61.44
71177;DHT22;58877;51.992;4.504;2023-07-29T13:51:38;23.46;61.76
71177;DHT22;58877;51.992;4.504;2023-07-29T13:54:07;23.31;62.08
71177;DHT22;58877;51.992;4.504;2023-07-29T13:56:32;23.14;62.77
71177;DHT22;58877;51.992;4.504;2023-07-29T13:58:58;23.36;63.04
71177;DHT22;58877;51.992;4.504;2023-07-29T14:01:24;23.30;62.68
71177;DHT22;58877;51.992;4.504;2023-07-29T14:03:49;23.14;63.10
71177;DHT22;58877;51.992;4.504;2023-07-29T14:06:15;23.21;62.11
71177;DHT22;58877;51.992;4.504;2023-07-29T14:08:41;23.20;62.17
71177;DHT22;58877;51.992;4.504;2023-07-29T14:11:07;23.17;62.11
71177;DHT22;58877;51.992;4.504;2023-07-29T14:13:33;22.96;62.27
71177;DHT22;58877;51.992;4.504;2023-07-29T14:16:02;22.89;63.50
71177;DHT22;58877;51.992;4.504;2023-07-29T14:18:29;23.11;61.95
71177;DHT22;58877;51.992;4.504;2023-07-29T14:20:56;23.13;61.78
71177;DHT22;58877;51.992;4.504;2023-07-29T14:23:21;23.27;61.41
71177;DHT22;58877;51.992;4.504;2023-07-29T14:25:50;22.97;62.13
71177;DHT22;58877;51.992;4.504;2023-07-29T14:28:17;22.82;60.66
71177;DHT22;58877;51.992;4.504;2023-07-29T14:30:45;22.63;61.59
71177;DHT22;58877;51.992;4.504;2023-07-29T14:33:10;22.64;61.86
71177;DHT22;58877;51.992;4.504;2023-07-29T14:35:42;23.11;61.36
71177;DHT22;58877;51.992;4.504;2023-07-29T14:38:11;23.17;61.70
71177;DHT22;58877;51.992;4.504;2023-07-29T14:40:48;23.67;60.68
71177;DHT22;58877;51.992;4.504;2023-07-29T14:43:16;24.19;59.56
71177;DHT22;58877;51.992;4.504;2023-07-29T14:45:42;23.57;61.28
71177;DHT22;58877;51.992;4.504;2023-07-29T14:48:10;23.00;63.08
71177;DHT22;58877;51.992;4.504;2023-07-29T14:50:40;22.99;63.61
71177;DHT22;58877;51.992;4.504;2023-07-29T14:53:10;23.20;63.98
71177;DHT22;58877;51.992;4.504;2023-07-29T14:55:37;23.99;61.59
71177;DHT22;58877;51.992;4.504;2023-07-29T14:58:03;23.94;61.68
71177;DHT22;58877;51.992;4.504;2023-07-29T15:00:42;24.44;60.93
71177;DHT22;58877;51.992;4.504;2023-07-29T15:03:08;24.09;60.57
71177;DHT22;58877;51.992;4.504;2023-07-29T15:05:34;24.51;60.47
71177;DHT22;58877;51.992;4.504;2023-07-29T15:08:14;24.55;56.64
71177;DHT22;58877;51.992;4.504;2023-07-29T15:10:47;23.99;57.98
71177;DHT22;58877;51.992;4.504;2023-07-29T15:13:19;23.99;58.16
71177;DHT22;58877;51.992;4.504;2023-07-29T15:15:51;23.97;58.46
71177;DHT22;58877;51.992;4.504;2023-07-29T15:21:18;23.53;63.90
71177;DHT22;58877;51.992;4.504;2023-07-29T15:23:47;23.40;64.58
71177;DHT22;58877;51.992;4.504;2023-07-29T15:26:18;24.36;62.24
71177;DHT22;58877;51.992;4.504;2023-07-29T15:28:49;23.47;63.87
71177;DHT22;58877;51.992;4.504;2023-07-29T15:31:15;24.09;63.39
71177;DHT22;58877;51.992;4.504;2023-07-29T15:33:59;25.57;58.35
71177;DHT22;58877;51.992;4.504;2023-07-29T15:36:28;25.41;58.16
71177;DHT22;58877;51.992;4.504;2023-07-29T15:39:00;25.59;57.41
71177;DHT22;58877;51.992;4.504;2023-07-29T15:41:26;24.97;57.49
71177;DHT22;58877;51.992;4.504;2023-07-29T15:43:57;25.02;57.32
71177;DHT22;58877;51.992;4.504;2023-07-29T15:46:25;25.44;55.22
71177;DHT22;58877;51.992;4.504;2023-07-29T15:48:57;25.82;52.74
71177;DHT22;58877;51.992;4.504;2023-07-29T15:51:33;25.34;53.86
71177;DHT22;58877;51.992;4.504;2023-07-29T15:53:59;26.46;51.89
71177;DHT22;58877;51.992;4.504;2023-07-29T15:56:29;26.19;51.67
71177;DHT22;58877;51.992;4.504;2023-07-29T15:59:19;26.32;49.93
71177;DHT22;58877;51.992;4.504;2023-07-29T16:01:50;26.59;47.12
71177;DHT22;58877;51.992;4.504;2023-07-29T16:04:48;26.77;47.74
71177;DHT22;58877;51.992;4.504;2023-07-29T16:07:21;25.98;47.37
71177;DHT22;58877;51.992;4.504;2023-07-29T16:09:48;25.48;48.18
71177;DHT22;58877;51.992;4.504;2023-07-29T16:12:43;25.34;49.82
71177;DHT22;58877;51.992;4.504;2023-07-29T16:15:11;25.07;47.62
71177;DHT22;58877;51.992;4.504;2023-07-29T16:17:37;25.21;47.94
71177;DHT22;58877;51.992;4.504;2023-07-29T16:20:40;25.88;48.95